createdAt,value
2022-12-02T00:00:51.145Z,99319.19
2022-12-02T00:01:55.217Z,99325.22
2022-12-02T00:02:58.501Z,99327.19
2022-12-02T00:04:01.706Z,99326.22
2022-12-02T00:05:33.635Z,99325.84
2022-12-02T00:06:35.238Z,99330.31
2022-12-02T00:07:37.038Z,99326.03
2022-12-02T00:08:38.757Z,99327.03
2022-12-02T00:09:43.487Z,99326.38
2022-12-02T00:10:45.497Z,99326.38
2022-12-02T00:11:48.651Z,99328.66
2022-12-02T00:12:51.278Z,99332.94
2022-12-02T00:13:52.965Z,99322.78
2022-12-02T00:15:01.319Z,99332.56
2022-12-02T00:16:04.855Z,99321.78
2022-12-02T00:17:06.636Z,99325.66
2022-12-02T00:18:16.934Z,99326.66
2022-12-02T00:19:19.476Z,99336.19
2022-12-02T00:20:21.135Z,99337.81
2022-12-02T00:21:22.931Z,99336.19
2022-12-02T00:22:24.588Z,99335.56
2022-12-02T00:23:26.254Z,99334.53
2022-12-02T00:24:27.973Z,99335.19
2022-12-02T00:25:29.641Z,99336.47
2022-12-02T00:26:31.279Z,99334.84
2022-12-02T00:27:32.977Z,99335.50
2022-12-02T00:28:34.824Z,99333.03
2022-12-02T00:29:36.527Z,99339.59
2022-12-02T00:30:38.176Z,99342.03
2022-12-02T00:31:40.043Z,99331.53
2022-12-02T00:32:41.859Z,99328.25
2022-12-02T00:33:43.589Z,99332.81
2022-12-02T00:34:45.220Z,99332.16
2022-12-02T00:35:47.098Z,99334.44
2022-12-02T00:36:48.832Z,99334.44
2022-12-02T00:37:51.279Z,99331.66
2022-12-02T00:38:53.065Z,99331.97
2022-12-02T00:39:54.728Z,99325.41
2022-12-02T00:40:56.399Z,99332.13
2022-12-02T00:41:58.096Z,99334.91
2022-12-02T00:43:21.129Z,99335.09
2022-12-02T00:44:55.562Z,99330.66
2022-12-02T00:46:15.807Z,99322.84
2022-12-02T00:47:17.487Z,99323.81
2022-12-02T00:48:19.123Z,99332.63
2022-12-02T00:49:20.772Z,99331.81
2022-12-02T00:50:22.557Z,99327.56
2022-12-02T00:51:24.255Z,99320.22
2022-12-02T00:52:25.923Z,99329.34
2022-12-02T00:53:27.786Z,99334.59
2022-12-02T00:54:29.440Z,99328.72
2022-12-02T00:55:31.095Z,99327.88
2022-12-02T00:56:33.786Z,99331.16
2022-12-02T00:57:35.439Z,99330.34
2022-12-02T00:58:37.194Z,99325.97
2022-12-02T00:59:38.832Z,99323.00
2022-12-02T01:00:40.528Z,99325.47
2022-12-02T01:01:44.889Z,99327.44
2022-12-02T01:02:46.721Z,99326.28
2022-12-02T01:03:48.421Z,99319.41
2022-12-02T01:04:50.273Z,99322.28
2022-12-02T01:05:52.211Z,99320.00
2022-12-02T01:06:53.867Z,99319.41
2022-12-02T01:07:55.620Z,99325.56
2022-12-02T01:08:57.350Z,99315.41
2022-12-02T01:09:59.001Z,99328.84
2022-12-02T01:11:00.717Z,99326.72
2022-12-02T01:12:02.751Z,99318.69
2022-12-02T01:13:05.188Z,99326.56
2022-12-02T01:14:06.858Z,99321.47
2022-12-02T01:15:09.612Z,99322.03
2022-12-02T01:16:11.388Z,99325.91
2022-12-02T01:17:13.154Z,99323.28
2022-12-02T01:18:15.048Z,99321.66
2022-12-02T01:19:16.813Z,99321.31
2022-12-02T01:20:18.696Z,99318.41
2022-12-02T01:21:21.667Z,99314.13
2022-12-02T01:22:23.350Z,99314.47
2022-12-02T01:23:25.080Z,99324.28
2022-12-02T01:24:26.738Z,99310.31
2022-12-02T01:25:28.413Z,99315.06
2022-12-02T01:26:30.111Z,99312.44
2022-12-02T01:27:31.769Z,99315.22
2022-12-02T01:28:33.712Z,99317.34
2022-12-02T01:29:35.366Z,99322.78
2022-12-02T01:30:37.145Z,99316.06
2022-12-02T01:31:38.905Z,99318.84
2022-12-02T01:32:40.651Z,99318.19
2022-12-02T01:33:42.630Z,99317.22
2022-12-02T01:34:44.277Z,99311.69
2022-12-02T01:35:45.984Z,99324.75
2022-12-02T01:36:47.627Z,99309.97
2022-12-02T01:37:49.360Z,99316.59
2022-12-02T01:38:51.100Z,99307.09
2022-12-02T01:39:52.746Z,99316.59
2022-12-02T01:40:54.494Z,99303.34
2022-12-02T01:41:56.352Z,99314.75
2022-12-02T01:42:58.267Z,99312.13
2022-12-02T01:43:59.943Z,99312.13
2022-12-02T01:45:01.962Z,99314.41
2022-12-02T01:46:04.271Z,99312.59
2022-12-02T01:47:06.441Z,99305.28
2022-12-02T01:48:08.194Z,99312.34
2022-12-02T01:49:09.976Z,99309.50
2022-12-02T01:50:13.483Z,99308.53
2022-12-02T01:51:15.219Z,99302.28
2022-12-02T01:52:17.083Z,99304.72
2022-12-02T01:53:19.007Z,99298.81
2022-12-02T01:54:20.933Z,99303.91
2022-12-02T01:55:25.036Z,99306.53
2022-12-02T01:56:27.599Z,99303.25
2022-12-02T01:57:31.321Z,99311.34
2022-12-02T01:58:33.167Z,99304.47
2022-12-02T01:59:34.953Z,99303.16
2022-12-02T02:00:36.622Z,99295.63
2022-12-02T02:01:38.735Z,99305.63
2022-12-02T02:02:41.402Z,99300.38
2022-12-02T02:03:43.106Z,99298.91
2022-12-02T02:04:44.783Z,99274.69
2022-12-02T02:05:47.779Z,99299.19
2022-12-02T02:06:49.508Z,99300.03
2022-12-02T02:07:54.098Z,99299.81
2022-12-02T02:08:56.523Z,99295.38
2022-12-02T02:09:58.683Z,99295.22
2022-12-02T02:11:00.419Z,99294.41
2022-12-02T02:12:02.127Z,99286.69
2022-12-02T02:13:04.938Z,99296.84
2022-12-02T02:14:09.032Z,99304.56
2022-12-02T02:15:12.703Z,99282.25
2022-12-02T02:16:15.618Z,99295.69
2022-12-02T02:17:18.095Z,99293.72
2022-12-02T02:18:19.802Z,99282.09
2022-12-02T02:19:21.510Z,99292.88
2022-12-02T02:20:25.095Z,99296.34
2022-12-02T02:21:31.424Z,99294.69
2022-12-02T02:22:48.925Z,99293.72
2022-12-02T02:23:50.689Z,99287.63
2022-12-02T02:24:52.481Z,99289.44
2022-12-02T02:26:00.178Z,99283.53
2022-12-02T02:27:01.847Z,99293.38
2022-12-02T02:28:03.970Z,99291.56
2022-12-02T02:29:05.752Z,99291.72
2022-12-02T02:30:08.043Z,99288.44
2022-12-02T02:31:10.175Z,99294.19
2022-12-02T02:32:11.992Z,99298.06
2022-12-02T02:33:15.085Z,99299.88
2022-12-02T02:34:16.842Z,99298.88
2022-12-02T02:35:19.850Z,99295.28
2022-12-02T02:36:21.859Z,99296.00
2022-12-02T02:37:24.907Z,99299.22
2022-12-02T02:38:28.585Z,99301.03
2022-12-02T02:39:30.619Z,99308.13
2022-12-02T02:40:32.811Z,99300.44
2022-12-02T02:41:34.816Z,99295.00
2022-12-02T02:42:36.586Z,99308.91
2022-12-02T02:43:39.205Z,99302.88
2022-12-02T02:44:41.078Z,99308.13
2022-12-02T02:45:44.496Z,99307.66
2022-12-02T02:46:46.510Z,99299.31
2022-12-02T02:47:49.077Z,99311.09
2022-12-02T02:48:51.607Z,99310.75
2022-12-02T02:49:53.331Z,99308.91
2022-12-02T02:50:56.372Z,99303.88
2022-12-02T02:51:58.035Z,99310.94
2022-12-02T02:53:01.495Z,99303.22
2022-12-02T02:54:03.392Z,99300.28
2022-12-02T02:55:06.612Z,99307.66
2022-12-02T02:56:09.285Z,99308.47
2022-12-02T02:57:11.124Z,99308.47
2022-12-02T02:58:15.739Z,99308.47
2022-12-02T02:59:17.537Z,99301.28
2022-12-02T03:00:21.847Z,99311.09
2022-12-02T03:01:35.906Z,99318.97
2022-12-02T03:02:37.886Z,99309.81
2022-12-02T03:03:45.005Z,99312.44
2022-12-02T03:04:47.827Z,99312.44
2022-12-02T03:05:52.455Z,99309.81
2022-12-02T03:06:54.235Z,99308.66
2022-12-02T03:07:56.177Z,99312.09
2022-12-02T03:08:59.641Z,99313.91
2022-12-02T03:10:02.835Z,99312.91
2022-12-02T03:11:04.605Z,99305.53
2022-12-02T03:12:07.151Z,99308.81
2022-12-02T03:13:09.142Z,99308.19
2022-12-02T03:14:15.771Z,99311.63
2022-12-02T03:15:17.668Z,99295.75
2022-12-02T03:16:22.036Z,99307.53
2022-12-02T03:17:24.723Z,99308.53
2022-12-02T03:18:26.681Z,99310.31
2022-12-02T03:19:31.998Z,99310.16
2022-12-02T03:20:33.696Z,99312.69
2022-12-02T03:21:35.665Z,99317.38
2022-12-02T03:22:37.418Z,99310.53
2022-12-02T03:23:39.491Z,99316.94
2022-12-02T03:24:41.804Z,99315.31
2022-12-02T03:25:43.605Z,99316.28
2022-12-02T03:26:46.064Z,99322.53
2022-12-02T03:27:47.763Z,99308.94
2022-12-02T03:28:50.232Z,99319.25
2022-12-02T03:29:52.209Z,99322.06
2022-12-02T03:30:53.950Z,99326.88
2022-12-02T03:31:58.550Z,99316.56
2022-12-02T03:33:00.471Z,99322.13
2022-12-02T03:34:04.717Z,99319.97
2022-12-02T03:35:07.067Z,99323.75
2022-12-02T03:36:10.098Z,99326.03
2022-12-02T03:37:11.928Z,99320.78
2022-12-02T03:38:13.618Z,99323.41
2022-12-02T03:39:15.899Z,99328.47
2022-12-02T03:40:17.775Z,99317.22
2022-12-02T03:41:20.449Z,99333.09
2022-12-02T03:42:22.303Z,99331.47
2022-12-02T03:43:24.436Z,99321.81
2022-12-02T03:44:26.292Z,99329.50
2022-12-02T03:45:28.290Z,99325.09
2022-12-02T03:46:30.786Z,99315.63
2022-12-02T03:47:32.498Z,99330.50
2022-12-02T03:48:36.291Z,99324.16
2022-12-02T03:49:38.364Z,99326.94
2022-12-02T03:50:41.335Z,99328.41
2022-12-02T03:51:43.496Z,99325.31
2022-12-02T03:52:45.262Z,99336.13
2022-12-02T03:53:47.178Z,99326.94
2022-12-02T03:54:54.697Z,99329.03
2022-12-02T03:55:57.444Z,99333.50
2022-12-02T03:56:59.239Z,99333.31
2022-12-02T03:58:08.126Z,99322.53
2022-12-02T03:59:11.683Z,99325.31
2022-12-02T04:00:16.183Z,99338.22
2022-12-02T04:01:20.021Z,99334.25
2022-12-02T04:02:21.772Z,99340.50
2022-12-02T04:03:23.446Z,99328.88
2022-12-02T04:04:25.161Z,99330.34
2022-12-02T04:05:26.894Z,99344.44
2022-12-02T04:06:28.554Z,99336.56
2022-12-02T04:07:30.566Z,99345.75
2022-12-02T04:08:32.250Z,99325.63
2022-12-02T04:09:33.987Z,99338.84
2022-12-02T04:10:35.646Z,99344.94
2022-12-02T04:11:37.320Z,99334.94
2022-12-02T04:12:39.019Z,99350.00
2022-12-02T04:13:40.677Z,99338.84
2022-12-02T04:14:42.417Z,99349.38
2022-12-02T04:15:44.178Z,99355.91
2022-12-02T04:16:45.884Z,99344.75
2022-12-02T04:17:47.563Z,99351.47
2022-12-02T04:18:49.267Z,99351.94
2022-12-02T04:19:50.997Z,99351.59
2022-12-02T04:20:52.714Z,99348.78
2022-12-02T04:21:54.347Z,99346.34
2022-12-02T04:22:55.979Z,99350.59
2022-12-02T04:23:57.643Z,99351.59
2022-12-02T04:24:59.939Z,99347.97
2022-12-02T04:26:01.608Z,99350.09
2022-12-02T04:27:03.379Z,99348.91
2022-12-02T04:28:05.150Z,99343.47
2022-12-02T04:29:06.827Z,99344.94
2022-12-02T04:30:09.052Z,99362.34
2022-12-02T04:31:11.141Z,99351.19
2022-12-02T04:32:12.908Z,99346.91
2022-12-02T04:33:14.562Z,99359.53
2022-12-02T04:34:16.251Z,99350.50
2022-12-02T04:35:17.932Z,99350.84
2022-12-02T04:36:20.455Z,99355.59
2022-12-02T04:37:22.165Z,99360.84
2022-12-02T04:38:24.391Z,99370.34
2022-12-02T04:39:26.075Z,99367.72
2022-12-02T04:40:27.719Z,99370.16
2022-12-02T04:41:29.715Z,99370.00
2022-12-02T04:42:31.366Z,99371.63
2022-12-02T04:43:33.095Z,99361.94
2022-12-02T04:44:34.755Z,99370.47
2022-12-02T04:45:36.811Z,99372.09
2022-12-02T04:46:38.526Z,99369.47
2022-12-02T04:47:40.168Z,99378.00
2022-12-02T04:48:42.236Z,99378.66
2022-12-02T04:49:43.926Z,99365.84
2022-12-02T04:50:45.600Z,99378.81
2022-12-02T04:51:47.299Z,99360.94
2022-12-02T04:52:49.005Z,99372.75
2022-12-02T04:53:50.692Z,99374.22
2022-12-02T04:54:52.590Z,99378.66
2022-12-02T04:55:54.456Z,99373.22
2022-12-02T04:56:56.124Z,99383.72
2022-12-02T04:57:57.827Z,99389.59
2022-12-02T04:58:59.513Z,99385.16
2022-12-02T05:00:01.217Z,99389.78
2022-12-02T05:01:02.918Z,99389.78
2022-12-02T05:02:04.585Z,99390.44
2022-12-02T05:03:06.243Z,99393.06
2022-12-02T05:04:08.055Z,99396.50
2022-12-02T05:05:09.964Z,99397.31
2022-12-02T05:06:11.625Z,99398.78
2022-12-02T05:07:13.285Z,99391.41
2022-12-02T05:08:15.064Z,99401.41
2022-12-02T05:09:16.744Z,99395.34
2022-12-02T05:10:18.556Z,99397.63
2022-12-02T05:11:20.253Z,99391.25
2022-12-02T05:12:21.999Z,99400.59
2022-12-02T05:13:23.689Z,99396.16
2022-12-02T05:14:25.397Z,99400.25
2022-12-02T05:15:27.071Z,99399.44
2022-12-02T05:16:28.764Z,99403.69
2022-12-02T05:17:31.134Z,99396.00
2022-12-02T05:18:32.781Z,99399.59
2022-12-02T05:19:34.646Z,99402.88
2022-12-02T05:20:36.309Z,99399.59
2022-12-02T05:21:37.986Z,99402.88
2022-12-02T05:22:40.470Z,99394.53
2022-12-02T05:23:42.152Z,99406.16
2022-12-02T05:24:43.889Z,99406.16
2022-12-02T05:25:45.575Z,99397.16
2022-12-02T05:26:47.232Z,99400.91
2022-12-02T05:27:48.936Z,99392.84
2022-12-02T05:28:50.583Z,99387.28
2022-12-02T05:29:52.232Z,99388.09
2022-12-02T05:30:53.980Z,99392.38
2022-12-02T05:31:55.673Z,99372.75
2022-12-02T05:32:57.436Z,99404.50
2022-12-02T05:33:59.087Z,99399.91
2022-12-02T05:35:00.850Z,99405.34
2022-12-02T05:36:02.572Z,99400.09
2022-12-02T05:37:04.374Z,99407.31
2022-12-02T05:38:06.052Z,99402.22
2022-12-02T05:39:08.371Z,99392.22
2022-12-02T05:40:10.485Z,99392.06
2022-12-02T05:41:12.187Z,99391.25
2022-12-02T05:42:15.398Z,99406.50
2022-12-02T05:43:23.307Z,99395.00
2022-12-02T05:44:29.169Z,99401.06
2022-12-02T05:45:31.106Z,99391.41
2022-12-02T05:46:32.840Z,99393.69
2022-12-02T05:47:35.348Z,99387.78
2022-12-02T05:48:37.088Z,99404.50
2022-12-02T05:49:39.724Z,99398.44
2022-12-02T05:50:43.349Z,99399.25
2022-12-02T05:51:48.367Z,99400.91
2022-12-02T05:52:51.722Z,99402.41
2022-12-02T05:53:53.435Z,99401.72
2022-12-02T05:54:58.351Z,99400.25
2022-12-02T05:56:00.579Z,99403.56
2022-12-02T05:57:06.778Z,99406.56
2022-12-02T05:58:12.495Z,99410.19
2022-12-02T05:59:17.600Z,99405.75
2022-12-02T06:00:20.289Z,99407.88
2022-12-02T06:01:37.615Z,99405.59
2022-12-02T06:03:02.293Z,99406.94
2022-12-02T06:04:06.161Z,99401.69
2022-12-02T06:05:25.660Z,99414.47
2022-12-02T06:06:34.498Z,99420.06
2022-12-02T06:07:36.629Z,99411.91
2022-12-02T06:08:40.087Z,99421.09
2022-12-02T06:09:43.504Z,99416.00
2022-12-02T06:10:54.089Z,99421.59
2022-12-02T06:11:56.098Z,99423.22
2022-12-02T06:13:05.337Z,99427.94
2022-12-02T06:14:14.536Z,99421.09
2022-12-02T06:15:16.576Z,99414.53
2022-12-02T06:16:23.997Z,99423.19
2022-12-02T06:17:25.791Z,99410.75
2022-12-02T06:18:32.416Z,99427.44
2022-12-02T06:19:55.054Z,99426.63
2022-12-02T06:20:59.455Z,99425.97
2022-12-02T06:22:01.807Z,99428.91
2022-12-02T06:23:03.979Z,99423.19
2022-12-02T06:24:10.058Z,99427.94
2022-12-02T06:25:32.580Z,99429.41
2022-12-02T06:26:34.237Z,99417.91
2022-12-02T06:27:35.914Z,99436.78
2022-12-02T06:28:40.194Z,99430.88
2022-12-02T06:29:54.371Z,99437.78
2022-12-02T06:31:35.690Z,99439.94
2022-12-02T06:32:42.326Z,99436.03
2022-12-02T06:33:50.073Z,99434.25
2022-12-02T06:34:53.161Z,99428.50
2022-12-02T06:35:55.971Z,99444.47
2022-12-02T06:37:09.836Z,99440.81
2022-12-02T06:38:22.759Z,99443.94
2022-12-02T06:39:25.594Z,99444.41
2022-12-02T06:40:34.444Z,99435.72
2022-12-02T06:41:38.244Z,99445.25
2022-12-02T06:42:39.944Z,99448.50
2022-12-02T06:43:41.808Z,99434.72
2022-12-02T06:45:01.927Z,99443.94
2022-12-02T06:46:07.847Z,99440.63
2022-12-02T06:47:37.559Z,99442.09
2022-12-02T06:48:40.626Z,99432.03
2022-12-02T06:49:42.269Z,99437.44
2022-12-02T06:50:47.110Z,99442.81
2022-12-02T06:52:00.424Z,99443.28
2022-12-02T06:53:20.893Z,99441.31
2022-12-02T06:54:26.601Z,99449.47
2022-12-02T06:55:36.007Z,99444.69
2022-12-02T06:56:37.885Z,99443.19
2022-12-02T06:57:39.649Z,99450.53
2022-12-02T06:58:47.484Z,99448.19
2022-12-02T06:59:51.865Z,99434.59
2022-12-02T07:00:54.617Z,99452.06
2022-12-02T07:02:04.885Z,99450.72
2022-12-02T07:03:33.298Z,99452.97
2022-12-02T07:04:38.221Z,99459.69
2022-12-02T07:05:39.945Z,99454.09
2022-12-02T07:06:44.477Z,99461.63
2022-12-02T07:07:46.297Z,99447.84
2022-12-02T07:08:47.991Z,99452.03
2022-12-02T07:10:00.793Z,99456.94
2022-12-02T07:11:02.441Z,99453.16
2022-12-02T07:12:12.640Z,99456.59
2022-12-02T07:13:18.762Z,99458.03
2022-12-02T07:14:25.892Z,99462.13
2022-12-02T07:15:31.007Z,99464.41
2022-12-02T07:16:36.789Z,99456.50
2022-12-02T07:17:43.400Z,99464.72
2022-12-02T07:18:45.099Z,99464.53
2022-12-02T07:19:50.474Z,99461.38
2022-12-02T07:20:52.187Z,99462.00
2022-12-02T07:21:54.100Z,99459.38
2022-12-02T07:22:55.786Z,99472.00
2022-12-02T07:23:57.834Z,99464.13
2022-12-02T07:25:17.148Z,99469.00
2022-12-02T07:26:19.699Z,99467.81
2022-12-02T07:27:25.616Z,99473.72
2022-12-02T07:28:27.323Z,99470.09
2022-12-02T07:29:31.264Z,99463.56
2022-12-02T07:30:37.421Z,99471.09
2022-12-02T07:31:39.122Z,99472.75
2022-12-02T07:32:40.760Z,99468.94
2022-12-02T07:33:42.446Z,99464.75
2022-12-02T07:34:44.141Z,99462.13
2022-12-02T07:35:45.859Z,99456.84
2022-12-02T07:36:47.555Z,99466.03
2022-12-02T07:37:49.577Z,99467.31
2022-12-02T07:39:05.832Z,99469.94
2022-12-02T07:40:08.944Z,99467.94
2022-12-02T07:41:10.662Z,99463.94
2022-12-02T07:42:14.441Z,99465.22
2022-12-02T07:43:16.213Z,99469.31
2022-12-02T07:44:17.852Z,99465.06
2022-12-02T07:45:20.296Z,99463.25
2022-12-02T07:46:22.104Z,99460.41
2022-12-02T07:47:23.909Z,99460.41
2022-12-02T07:48:25.589Z,99458.59
2022-12-02T07:49:27.266Z,99457.16
2022-12-02T07:50:28.927Z,99457.22
2022-12-02T07:51:30.572Z,99459.84
2022-12-02T07:52:32.263Z,99473.50
2022-12-02T07:53:33.942Z,99472.13
2022-12-02T07:54:35.684Z,99468.94
2022-12-02T07:55:37.392Z,99464.66
2022-12-02T07:56:39.072Z,99475.66
2022-12-02T07:57:40.706Z,99470.38
2022-12-02T07:59:10.322Z,99476.38
2022-12-02T08:00:08.057Z,99473.72
2022-12-02T08:01:12.247Z,99478.47
2022-12-02T08:02:17.740Z,99471.75
2022-12-02T08:03:19.380Z,99468.09
2022-12-02T08:04:21.112Z,99461.19
2022-12-02T08:05:24.301Z,99477.94
2022-12-02T08:06:26.116Z,99468.09
2022-12-02T08:07:27.875Z,99475.09
2022-12-02T08:08:29.561Z,99476.47
2022-12-02T08:09:31.242Z,99465.28
2022-12-02T08:10:32.952Z,99477.19
2022-12-02T08:11:34.765Z,99469.28
2022-12-02T08:12:36.426Z,99475.53
2022-12-02T08:13:38.140Z,99472.72
2022-12-02T08:14:39.957Z,99468.63
2022-12-02T08:15:41.623Z,99472.34
2022-12-02T08:16:43.660Z,99475.25
2022-12-02T08:17:45.387Z,99477.88
2022-12-02T08:18:47.043Z,99485.00
2022-12-02T08:19:48.814Z,99484.25
2022-12-02T08:20:50.483Z,99478.25
2022-12-02T08:21:53.123Z,99481.13
2022-12-02T08:22:54.831Z,99478.38
2022-12-02T08:23:56.634Z,99474.34
2022-12-02T08:24:58.296Z,99475.25
2022-12-02T08:25:59.968Z,99485.22
2022-12-02T08:27:01.621Z,99479.59
2022-12-02T08:28:03.316Z,99478.41
2022-12-02T08:29:05.035Z,99478.63
2022-12-02T08:30:09.503Z,99481.16
2022-12-02T08:31:11.327Z,99472.25
2022-12-02T08:32:13.058Z,99482.84
2022-12-02T08:33:14.754Z,99482.84
2022-12-02T08:34:16.459Z,99479.16
2022-12-02T08:35:18.501Z,99482.28
2022-12-02T08:36:20.947Z,99484.78
2022-12-02T08:37:22.665Z,99486.75
2022-12-02T08:38:24.359Z,99483.78
2022-12-02T08:39:26.088Z,99494.97
2022-12-02T08:40:27.759Z,99494.59
2022-12-02T08:41:29.407Z,99504.81
2022-12-02T08:42:31.064Z,99491.50
2022-12-02T08:43:32.825Z,99496.38
2022-12-02T08:44:34.732Z,99495.63
2022-12-02T08:45:36.400Z,99497.44
2022-12-02T08:46:38.212Z,99495.66
2022-12-02T08:47:39.924Z,99494.06
2022-12-02T08:48:41.821Z,99497.56
2022-12-02T08:49:43.491Z,99495.50
2022-12-02T08:50:45.165Z,99499.00
2022-12-02T08:51:47.016Z,99497.41
2022-12-02T08:52:51.675Z,99497.59
2022-12-02T08:53:56.994Z,99490.88
2022-12-02T08:54:58.723Z,99492.94
2022-12-02T08:56:00.376Z,99499.66
2022-12-02T08:57:02.046Z,99498.44
2022-12-02T08:58:03.943Z,99490.94
2022-12-02T08:59:07.388Z,99492.16
2022-12-02T09:00:10.166Z,99487.31
2022-12-02T09:01:11.887Z,99498.91
2022-12-02T09:02:13.657Z,99495.88
2022-12-02T09:03:15.375Z,99490.59
2022-12-02T09:04:17.025Z,99494.09
2022-12-02T09:05:18.837Z,99494.72
2022-12-02T09:06:20.546Z,99493.28
2022-12-02T09:07:22.320Z,99497.13
2022-12-02T09:08:24.122Z,99491.44
2022-12-02T09:09:25.829Z,99488.00
2022-12-02T09:10:27.860Z,99488.06
2022-12-02T09:11:29.524Z,99486.84
2022-12-02T09:12:31.196Z,99483.81
2022-12-02T09:13:32.852Z,99490.56
2022-12-02T09:14:34.520Z,99491.16
2022-12-02T09:15:36.311Z,99490.75
2022-12-02T09:16:38.079Z,99495.22
2022-12-02T09:17:39.731Z,99493.63
2022-12-02T09:18:41.393Z,99487.53
2022-12-02T09:19:43.035Z,99496.34
2022-12-02T09:20:44.702Z,99490.88
2022-12-02T09:21:46.445Z,99492.09
2022-12-02T09:22:48.096Z,99495.75
2022-12-02T09:23:50.931Z,99481.50
2022-12-02T09:24:53.052Z,99488.44
2022-12-02T09:25:54.947Z,99485.59
2022-12-02T09:26:56.612Z,99482.16
2022-12-02T09:27:58.337Z,99482.34
2022-12-02T09:28:59.984Z,99479.31
2022-12-02T09:30:02.042Z,99477.06
2022-12-02T09:31:03.781Z,99483.59
2022-12-02T09:32:05.554Z,99479.94
2022-12-02T09:33:07.468Z,99478.28
2022-12-02T09:34:09.181Z,99477.47
2022-12-02T09:35:10.877Z,99477.88
2022-12-02T09:36:12.867Z,99476.06
2022-12-02T09:37:14.805Z,99485.41
2022-12-02T09:38:16.524Z,99485.84
2022-12-02T09:39:18.658Z,99479.91
2022-12-02T09:40:21.118Z,99481.34
2022-12-02T09:41:22.989Z,99484.63
2022-12-02T09:42:25.166Z,99482.78
2022-12-02T09:43:30.703Z,99483.59
2022-12-02T09:44:32.481Z,99482.38
2022-12-02T09:45:34.573Z,99481.34
2022-12-02T09:46:36.880Z,99475.03
2022-12-02T09:47:38.689Z,99477.03
2022-12-02T09:48:40.409Z,99475.19
2022-12-02T09:49:44.258Z,99472.97
2022-12-02T09:50:46.223Z,99470.94
2022-12-02T09:51:47.935Z,99481.28
2022-12-02T09:52:49.971Z,99468.66
2022-12-02T09:53:52.120Z,99483.06
2022-12-02T09:54:59.567Z,99473.91
2022-12-02T09:56:01.947Z,99464.28
2022-12-02T09:57:10.174Z,99468.25
2022-12-02T09:58:19.981Z,99468.63
2022-12-02T09:59:23.175Z,99469.91
2022-12-02T10:00:25.124Z,99473.50
2022-12-02T10:01:27.543Z,99473.19
2022-12-02T10:02:39.853Z,99468.50
2022-12-02T10:03:42.922Z,99467.56
2022-12-02T10:04:44.589Z,99475.97
2022-12-02T10:05:47.005Z,99471.44
2022-12-02T10:06:48.849Z,99473.41
2022-12-02T10:07:52.914Z,99473.50
2022-12-02T10:08:57.646Z,99473.66
2022-12-02T10:10:00.745Z,99470.09
2022-12-02T10:11:02.467Z,99466.06
2022-12-02T10:12:04.457Z,99466.59
2022-12-02T10:13:08.244Z,99470.84
2022-12-02T10:14:14.734Z,99468.03
2022-12-02T10:15:28.559Z,99467.59
2022-12-02T10:16:30.264Z,99469.81
2022-12-02T10:17:32.176Z,99468.75
2022-12-02T10:18:34.310Z,99464.41
2022-12-02T10:19:36.217Z,99456.31
2022-12-02T10:20:37.885Z,99469.56
2022-12-02T10:21:39.559Z,99458.84
2022-12-02T10:23:07.125Z,99469.97
2022-12-02T10:24:09.971Z,99466.66
2022-12-02T10:25:30.933Z,99465.59
2022-12-02T10:26:53.018Z,99465.53
2022-12-02T10:27:54.673Z,99457.56
2022-12-02T10:29:08.703Z,99467.38
2022-12-02T10:30:25.328Z,99460.53
2022-12-02T10:31:27.059Z,99453.38
2022-12-02T10:32:28.861Z,99460.53
2022-12-02T10:33:33.009Z,99459.75
2022-12-02T10:34:35.892Z,99460.78
2022-12-02T10:35:45.092Z,99456.88
2022-12-02T10:36:47.077Z,99458.78
2022-12-02T10:37:48.793Z,99460.84
2022-12-02T10:38:50.482Z,99466.34
2022-12-02T10:40:17.953Z,99459.41
2022-12-02T10:41:25.081Z,99464.31
2022-12-02T10:42:27.038Z,99449.63
2022-12-02T10:43:28.720Z,99445.13
2022-12-02T10:44:32.424Z,99453.06
2022-12-02T10:45:34.099Z,99454.84
2022-12-02T10:46:35.910Z,99453.56
2022-12-02T10:47:37.723Z,99446.63
2022-12-02T10:48:39.379Z,99456.56
2022-12-02T10:49:49.077Z,99456.97
2022-12-02T10:50:50.810Z,99447.78
2022-12-02T10:51:53.559Z,99453.91
2022-12-02T10:53:00.297Z,99447.56
2022-12-02T10:54:02.032Z,99442.94
2022-12-02T10:55:05.105Z,99453.09
2022-12-02T10:56:07.393Z,99444.09
2022-12-02T10:57:14.120Z,99458.13
2022-12-02T10:58:29.638Z,99449.31
2022-12-02T10:59:32.746Z,99458.66
2022-12-02T11:00:36.433Z,99457.03
2022-12-02T11:01:42.347Z,99449.81
2022-12-02T11:02:56.791Z,99456.75
2022-12-02T11:03:58.481Z,99444.53
2022-12-02T11:05:13.807Z,99456.50
2022-12-02T11:06:19.270Z,99450.16
2022-12-02T11:07:23.874Z,99446.91
2022-12-02T11:08:27.554Z,99450.34
2022-12-02T11:09:39.950Z,99448.16
2022-12-02T11:10:46.012Z,99454.38
2022-12-02T11:11:48.108Z,99449.03
2022-12-02T11:12:49.781Z,99453.50
2022-12-02T11:13:59.792Z,99457.31
2022-12-02T11:15:05.077Z,99450.84
2022-12-02T11:16:28.734Z,99447.97
2022-12-02T11:17:51.709Z,99447.91
2022-12-02T11:19:03.853Z,99451.00
2022-12-02T11:20:32.967Z,99456.50
2022-12-02T11:21:42.583Z,99447.34
2022-12-02T11:22:48.918Z,99453.63
2022-12-02T11:24:22.448Z,99450.59
2022-12-02T11:25:42.599Z,99453.03
2022-12-02T11:27:05.139Z,99454.88
2022-12-02T11:28:18.103Z,99454.47
2022-12-02T11:29:19.781Z,99452.00
2022-12-02T11:30:24.183Z,99449.34
2022-12-02T11:31:26.790Z,99453.03
2022-12-02T11:32:28.563Z,99454.66
2022-12-02T11:33:53.237Z,99455.91
2022-12-02T11:36:29.360Z,99454.25
2022-12-02T11:37:31.064Z,99462.41
2022-12-02T11:38:48.246Z,99453.84
2022-12-02T11:39:52.981Z,99454.25
2022-12-02T11:40:54.895Z,99452.03
2022-12-02T11:41:59.642Z,99456.72
2022-12-02T11:43:38.907Z,99460.16
2022-12-02T11:44:40.651Z,99445.09
2022-12-02T11:45:42.386Z,99457.09
2022-12-02T11:46:47.511Z,99457.94
2022-12-02T11:47:55.192Z,99456.28
2022-12-02T11:48:57.165Z,99448.94
2022-12-02T11:50:16.986Z,99453.44
2022-12-02T11:51:38.750Z,99445.91
2022-12-02T11:52:43.157Z,99448.72
2022-12-02T11:53:51.392Z,99451.34
2022-12-02T11:55:14.836Z,99451.34
2022-12-02T11:56:18.700Z,99457.47
2022-12-02T11:57:32.111Z,99457.66
2022-12-02T11:58:35.201Z,99456.63
2022-12-02T11:59:41.355Z,99463.19
2022-12-02T12:01:05.263Z,99460.13
2022-12-02T12:02:14.287Z,99462.56
2022-12-02T12:03:18.712Z,99467.22
2022-12-02T12:04:30.043Z,99459.47
2022-12-02T12:05:32.126Z,99465.41
2022-12-02T12:06:35.507Z,99455.81
2022-12-02T12:07:49.157Z,99463.75
2022-12-02T12:08:54.818Z,99463.78
2022-12-02T12:09:58.214Z,99462.78
2022-12-02T12:11:19.375Z,99460.53
2022-12-02T12:12:21.023Z,99466.00
2022-12-02T12:13:24.515Z,99465.59
2022-12-02T12:14:26.245Z,99466.41
2022-12-02T12:15:58.677Z,99469.28
2022-12-02T12:17:18.253Z,99469.47
2022-12-02T12:18:38.226Z,99465.19
2022-12-02T12:19:39.927Z,99465.00
2022-12-02T12:20:42.784Z,99457.84
2022-12-02T12:21:48.114Z,99463.16
2022-12-02T12:22:49.764Z,99463.34
2022-12-02T12:23:51.594Z,99469.03
2022-12-02T12:24:53.681Z,99461.34
2022-12-02T12:25:55.678Z,99469.69
2022-12-02T12:26:58.874Z,99472.16
2022-12-02T12:28:01.037Z,99472.97
2022-12-02T12:29:05.200Z,99471.75
2022-12-02T12:30:07.619Z,99460.94
2022-12-02T12:31:09.386Z,99466.41
2022-12-02T12:32:11.385Z,99459.72
2022-12-02T12:33:13.065Z,99462.97
2022-12-02T12:34:16.766Z,99468.88
2022-12-02T12:35:18.510Z,99466.84